createdAt,value
2023-04-22T00:00:07.934Z,26.34
2023-04-22T00:01:08.003Z,26.31
2023-04-22T00:02:08.053Z,26.31
2023-04-22T00:03:08.189Z,26.33
2023-04-22T00:04:08.330Z,26.31
2023-04-22T00:05:08.198Z,26.33
2023-04-22T00:06:08.126Z,26.33
2023-04-22T00:07:08.147Z,26.31
2023-04-22T00:08:08.150Z,26.33
2023-04-22T00:09:08.205Z,26.31
2023-04-22T00:10:08.205Z,26.31
2023-04-22T00:11:08.327Z,26.30
2023-04-22T00:12:08.287Z,26.30
2023-04-22T00:13:08.329Z,26.30
2023-04-22T00:14:08.391Z,26.31
2023-04-22T00:15:08.356Z,26.33
2023-04-22T00:16:08.577Z,26.33
2023-04-22T00:17:08.395Z,26.30
2023-04-22T00:18:08.426Z,26.31
2023-04-22T00:19:08.548Z,26.33
2023-04-22T00:20:08.506Z,26.31
2023-04-22T00:21:08.521Z,26.31
2023-04-22T00:22:08.553Z,26.30
2023-04-22T00:23:08.555Z,26.31
2023-04-22T00:24:08.603Z,26.30
2023-04-22T00:25:08.628Z,26.31
2023-04-22T00:26:08.649Z,26.30
2023-04-22T00:27:08.672Z,26.30
2023-04-22T00:28:08.708Z,26.31
2023-04-22T00:29:08.733Z,26.31
2023-04-22T00:30:08.733Z,26.31
2023-04-22T00:31:08.832Z,26.29
2023-04-22T00:32:08.799Z,26.30
2023-04-22T00:33:08.840Z,26.30
2023-04-22T00:34:08.864Z,26.30
2023-04-22T00:35:08.916Z,26.31
2023-04-22T00:36:08.903Z,26.31
2023-04-22T00:37:08.907Z,26.30
2023-04-22T00:38:08.944Z,26.29
2023-04-22T00:39:08.945Z,26.30
2023-04-22T00:40:09.008Z,26.31
2023-04-22T00:41:09.014Z,26.29
2023-04-22T00:42:09.023Z,26.30
2023-04-22T00:43:09.049Z,26.31
2023-04-22T00:44:09.085Z,26.30
2023-04-22T00:45:09.111Z,26.30
2023-04-22T00:46:09.141Z,26.30
2023-04-22T00:47:09.213Z,26.29
2023-04-22T00:48:09.323Z,26.30
2023-04-22T00:49:09.189Z,26.30
2023-04-22T00:50:09.229Z,26.30
2023-04-22T00:51:09.263Z,26.29
2023-04-22T00:52:09.269Z,26.27
2023-04-22T00:53:09.289Z,26.30
2023-04-22T00:54:09.345Z,26.29
2023-04-22T00:55:09.341Z,26.29
2023-04-22T00:56:09.409Z,26.27
2023-04-22T00:57:09.420Z,26.30
2023-04-22T00:58:09.448Z,26.29
2023-04-22T00:59:09.494Z,26.27
2023-04-22T01:00:09.512Z,26.26
2023-04-22T01:01:09.637Z,26.26
2023-04-22T01:02:09.679Z,26.27
2023-04-22T01:03:09.703Z,26.29
2023-04-22T01:04:09.733Z,26.27
2023-04-22T01:05:09.681Z,26.29
2023-04-22T01:06:09.752Z,26.29
2023-04-22T01:07:09.743Z,26.27
2023-04-22T01:08:09.775Z,26.26
2023-04-22T01:09:09.788Z,26.29
2023-04-22T01:10:09.857Z,26.29
2023-04-22T01:11:09.855Z,26.29
2023-04-22T01:12:09.866Z,26.29
2023-04-22T01:13:09.924Z,26.29
2023-04-22T01:14:09.935Z,26.30
2023-04-22T01:15:09.968Z,26.26
2023-04-22T01:16:10.080Z,26.29
2023-04-22T01:17:10.050Z,26.29
2023-04-22T01:18:10.131Z,26.30
2023-04-22T01:19:10.062Z,26.26
2023-04-22T01:20:10.119Z,26.27
2023-04-22T01:21:10.116Z,26.27
2023-04-22T01:22:10.157Z,26.27
2023-04-22T01:23:10.207Z,26.27
2023-04-22T01:24:10.244Z,26.26
2023-04-22T01:25:10.251Z,26.27
2023-04-22T01:26:10.283Z,26.27
2023-04-22T01:27:10.296Z,26.27
2023-04-22T01:28:10.333Z,26.29
2023-04-22T01:29:10.373Z,26.27
2023-04-22T01:30:10.385Z,26.29
2023-04-22T01:31:10.427Z,26.29
2023-04-22T01:32:10.498Z,26.24
2023-04-22T01:33:10.539Z,26.26
2023-04-22T01:34:10.506Z,26.24
2023-04-22T01:35:10.550Z,26.26
2023-04-22T01:36:12.380Z,26.26
2023-04-22T01:37:10.673Z,26.26
2023-04-22T01:38:10.719Z,26.26
2023-04-22T01:39:10.754Z,26.26
2023-04-22T01:40:10.802Z,26.26
2023-04-22T01:41:10.814Z,26.24
2023-04-22T01:42:10.837Z,26.24
2023-04-22T01:43:10.871Z,26.26
2023-04-22T01:44:10.887Z,26.26
2023-04-22T01:45:10.920Z,26.24
2023-04-22T01:46:11.004Z,26.24
2023-04-22T01:47:10.986Z,26.26
2023-04-22T01:48:11.086Z,26.24
2023-04-22T01:49:11.047Z,26.23
2023-04-22T01:50:11.079Z,26.26
2023-04-22T01:51:11.128Z,26.24
2023-04-22T01:52:11.146Z,26.24
2023-04-22T01:53:11.181Z,26.23
2023-04-22T01:54:11.201Z,26.24
2023-04-22T01:55:11.247Z,26.24
2023-04-22T01:56:11.281Z,26.22
2023-04-22T01:57:11.328Z,26.23
2023-04-22T01:58:11.368Z,26.24
2023-04-22T01:59:11.365Z,26.24
2023-04-22T02:00:11.393Z,26.26
2023-04-22T02:01:11.438Z,26.26
2023-04-22T02:02:11.503Z,26.23
2023-04-22T02:03:11.686Z,26.24
2023-04-22T02:04:11.531Z,26.24
2023-04-22T02:05:11.660Z,26.23
2023-04-22T02:06:11.588Z,26.23
2023-04-22T02:07:11.620Z,26.26
2023-04-22T02:08:11.653Z,26.24
2023-04-22T02:09:11.703Z,26.23
2023-04-22T02:10:11.745Z,26.22
2023-04-22T02:11:11.755Z,26.23
2023-04-22T02:12:11.800Z,26.24
2023-04-22T02:13:11.832Z,26.23
2023-04-22T02:14:11.858Z,26.23
2023-04-22T02:15:11.889Z,26.23
2023-04-22T02:16:12.020Z,26.23
2023-04-22T02:17:11.967Z,26.24
2023-04-22T02:18:12.000Z,26.23
2023-04-22T02:19:12.051Z,26.23
2023-04-22T02:20:12.188Z,26.22
2023-04-22T02:21:12.210Z,26.22
2023-04-22T02:22:12.147Z,26.23
2023-04-22T02:23:12.170Z,26.23
2023-04-22T02:24:12.216Z,26.22
2023-04-22T02:25:12.262Z,26.23
2023-04-22T02:26:12.271Z,26.23
2023-04-22T02:27:12.312Z,26.22
2023-04-22T02:28:12.316Z,26.23
2023-04-22T02:29:12.370Z,26.24
2023-04-22T02:30:12.400Z,26.22
2023-04-22T02:31:12.470Z,26.23
2023-04-22T02:32:12.474Z,26.20
2023-04-22T02:33:12.502Z,26.22
2023-04-22T02:34:12.535Z,26.22
2023-04-22T02:35:12.573Z,26.23
2023-04-22T02:36:12.612Z,26.23
2023-04-22T02:37:12.628Z,26.22
2023-04-22T02:38:12.691Z,26.23
2023-04-22T02:39:12.705Z,26.24
2023-04-22T02:40:12.726Z,26.22
2023-04-22T02:41:12.778Z,26.23
2023-04-22T02:42:12.812Z,26.20
2023-04-22T02:43:12.823Z,26.23
2023-04-22T02:44:12.863Z,26.23
2023-04-22T02:45:12.887Z,26.23
2023-04-22T02:46:13.011Z,26.22
2023-04-22T02:47:12.979Z,26.22
2023-04-22T02:48:13.077Z,26.23
2023-04-22T02:49:13.049Z,26.22
2023-04-22T02:50:13.077Z,26.23
2023-04-22T02:51:13.117Z,26.23
2023-04-22T02:52:13.134Z,26.22
2023-04-22T02:53:13.170Z,26.24
2023-04-22T02:54:13.235Z,26.20
2023-04-22T02:55:13.241Z,26.22
2023-04-22T02:56:13.294Z,26.20
2023-04-22T02:57:13.308Z,26.23
2023-04-22T02:58:13.341Z,26.20
2023-04-22T02:59:13.371Z,26.20
2023-04-22T03:00:13.446Z,26.20
2023-04-22T03:01:13.514Z,26.20
2023-04-22T03:03:13.733Z,26.20
2023-04-22T03:04:13.768Z,26.22
2023-04-22T03:05:13.604Z,26.23
2023-04-22T03:06:13.635Z,26.22
2023-04-22T03:07:13.654Z,26.22
2023-04-22T03:08:13.698Z,26.20
2023-04-22T03:09:13.722Z,26.23
2023-04-22T03:10:13.751Z,26.22
2023-04-22T03:11:13.821Z,26.22
2023-04-22T03:12:13.818Z,26.23
2023-04-22T03:13:13.857Z,26.22
2023-04-22T03:14:13.897Z,26.19
2023-04-22T03:15:13.915Z,26.20
2023-04-22T03:16:13.972Z,26.22
2023-04-22T03:17:13.993Z,26.24
2023-04-22T03:18:14.034Z,26.23
2023-04-22T03:19:14.051Z,26.20
2023-04-22T03:20:14.096Z,26.19
2023-04-22T03:21:14.135Z,26.20
2023-04-22T03:22:14.161Z,26.22
2023-04-22T03:23:14.196Z,26.20
2023-04-22T03:24:14.240Z,26.22
2023-04-22T03:25:14.267Z,26.20
2023-04-22T03:26:14.297Z,26.22
2023-04-22T03:27:14.312Z,26.20
2023-04-22T03:28:14.384Z,26.22
2023-04-22T03:29:14.419Z,26.22
2023-04-22T03:30:14.431Z,26.20
2023-04-22T03:31:14.476Z,26.19
2023-04-22T03:32:14.571Z,26.23
2023-04-22T03:33:14.590Z,26.20
2023-04-22T03:34:14.568Z,26.19
2023-04-22T03:35:14.574Z,26.19
2023-04-22T03:36:14.609Z,26.22
2023-04-22T03:37:14.658Z,26.20
2023-04-22T03:38:14.688Z,26.20
2023-04-22T03:39:14.719Z,26.17
2023-04-22T03:40:14.742Z,26.20
2023-04-22T03:41:14.826Z,26.22
2023-04-22T03:42:14.806Z,26.22
2023-04-22T03:43:14.849Z,26.20
2023-04-22T03:44:14.882Z,26.20
2023-04-22T03:45:14.920Z,26.17
2023-04-22T03:46:15.022Z,26.20
2023-04-22T03:47:14.984Z,26.19
2023-04-22T03:48:15.026Z,26.19
2023-04-22T03:49:15.065Z,26.19
2023-04-22T03:50:15.093Z,26.19
2023-04-22T03:51:15.214Z,26.20
2023-04-22T03:52:15.163Z,26.22
2023-04-22T03:53:15.210Z,26.17
2023-04-22T03:54:15.206Z,26.19
2023-04-22T03:55:15.241Z,26.20
2023-04-22T03:56:15.282Z,26.19
2023-04-22T03:57:15.320Z,26.20
2023-04-22T03:58:15.336Z,26.19
2023-04-22T03:59:15.381Z,26.19
2023-04-22T04:00:15.426Z,26.19
2023-04-22T04:01:15.458Z,26.19
2023-04-22T04:02:15.596Z,26.16
2023-04-22T04:03:15.769Z,26.17
2023-04-22T04:04:15.636Z,26.19
2023-04-22T04:05:15.679Z,26.17
2023-04-22T04:06:15.605Z,26.17
2023-04-22T04:07:15.632Z,26.16
2023-04-22T04:08:15.669Z,26.20
2023-04-22T04:09:15.712Z,26.17
2023-04-22T04:10:15.723Z,26.19
2023-04-22T04:11:15.758Z,26.19
2023-04-22T04:12:15.815Z,26.19
2023-04-22T04:13:15.833Z,26.19
2023-04-22T04:14:15.868Z,26.19
2023-04-22T04:15:15.896Z,26.17
2023-04-22T04:16:16.071Z,26.20
2023-04-22T04:17:15.977Z,26.19
2023-04-22T04:18:16.023Z,26.19
2023-04-22T04:19:16.058Z,26.19
2023-04-22T04:20:16.082Z,26.17
2023-04-22T04:21:16.130Z,26.20
2023-04-22T04:22:16.157Z,26.20
2023-04-22T04:23:16.200Z,26.19
2023-04-22T04:24:16.225Z,26.16
2023-04-22T04:25:16.278Z,26.16
2023-04-22T04:26:16.380Z,26.17
2023-04-22T04:27:16.315Z,26.17
2023-04-22T04:28:16.349Z,26.17
2023-04-22T04:29:16.374Z,26.17
2023-04-22T04:30:16.429Z,26.19
2023-04-22T04:31:16.556Z,26.17
2023-04-22T04:32:16.493Z,26.17
2023-04-22T04:33:16.530Z,26.19
2023-04-22T04:34:16.566Z,26.17
2023-04-22T04:35:16.594Z,26.20
2023-04-22T04:36:16.643Z,26.19
2023-04-22T04:37:16.677Z,26.19
2023-04-22T04:38:16.724Z,26.16
2023-04-22T04:39:16.737Z,26.19
2023-04-22T04:40:16.755Z,26.19
2023-04-22T04:41:16.802Z,26.20
2023-04-22T04:42:16.868Z,26.19
2023-04-22T04:43:16.865Z,26.17
2023-04-22T04:44:16.895Z,26.22
2023-04-22T04:45:16.924Z,26.19
2023-04-22T04:46:17.041Z,26.20
2023-04-22T04:47:17.004Z,26.20
2023-04-22T04:48:17.025Z,26.19
2023-04-22T04:49:17.172Z,26.22
2023-04-22T04:50:17.108Z,26.20
2023-04-22T04:51:19.635Z,26.22
2023-04-22T04:52:17.137Z,26.20
2023-04-22T04:53:17.120Z,26.19
2023-04-22T04:54:17.109Z,26.22
2023-04-22T04:55:17.147Z,26.20
2023-04-22T04:56:17.103Z,26.22
2023-04-22T04:57:17.089Z,26.22
2023-04-22T04:58:17.077Z,26.23
2023-04-22T04:59:17.086Z,26.23
2023-04-22T05:00:17.078Z,26.22
2023-04-22T05:01:17.180Z,26.22
2023-04-22T05:02:17.300Z,26.24
2023-04-22T05:03:17.224Z,26.22
2023-04-22T05:04:17.338Z,26.23
2023-04-22T05:05:17.036Z,26.26
2023-04-22T05:06:17.031Z,26.26
2023-04-22T05:07:17.031Z,26.26
2023-04-22T05:08:17.038Z,26.30
2023-04-22T05:09:17.020Z,26.33
2023-04-22T05:10:17.006Z,26.39
2023-04-22T05:11:17.099Z,26.40
2023-04-22T05:12:16.988Z,26.43
2023-04-22T05:13:16.982Z,26.50
2023-04-22T05:14:16.996Z,26.50
2023-04-22T05:15:16.980Z,26.54
2023-04-22T05:16:17.059Z,26.57
2023-04-22T05:17:16.967Z,26.58
2023-04-22T05:18:16.943Z,26.62
2023-04-22T05:19:16.973Z,26.67
2023-04-22T05:20:16.954Z,26.68
2023-04-22T05:21:17.022Z,26.71
2023-04-22T05:22:16.928Z,26.74
2023-04-22T05:23:16.913Z,26.78
2023-04-22T05:24:16.918Z,26.82
2023-04-22T05:25:16.923Z,26.82
2023-04-22T05:26:16.921Z,26.84
2023-04-22T05:27:16.909Z,26.87
2023-04-22T05:28:16.913Z,26.90
2023-04-22T05:29:16.888Z,26.91
2023-04-22T05:30:16.869Z,26.95
2023-04-22T05:31:16.865Z,26.98
2023-04-22T05:32:16.950Z,26.98
2023-04-22T05:33:16.990Z,26.99
2023-04-22T05:34:16.837Z,26.99
2023-04-22T05:35:16.829Z,27.01
2023-04-22T05:36:16.848Z,27.02
2023-04-22T05:37:16.816Z,27.01
2023-04-22T05:38:16.835Z,27.03
2023-04-22T05:39:16.808Z,27.03
2023-04-22T05:40:16.794Z,27.02
2023-04-22T05:41:16.827Z,27.03
2023-04-22T05:42:16.793Z,27.02
2023-04-22T05:43:16.772Z,27.03
2023-04-22T05:44:16.792Z,27.05
2023-04-22T05:45:16.760Z,27.09
2023-04-22T05:46:16.824Z,27.06
2023-04-22T05:47:16.803Z,27.06
2023-04-22T05:48:16.855Z,27.09
2023-04-22T05:49:16.915Z,27.08
2023-04-22T05:50:16.964Z,27.08
2023-04-22T05:51:17.056Z,27.08
2023-04-22T05:52:17.099Z,27.05
2023-04-22T05:53:17.166Z,27.06
2023-04-22T05:54:17.198Z,27.08
2023-04-22T05:55:17.346Z,27.09
2023-04-22T05:56:17.323Z,27.08
2023-04-22T05:57:17.398Z,27.08
2023-04-22T05:58:17.434Z,27.03
2023-04-22T05:59:19.532Z,27.03
2023-04-22T06:00:17.489Z,27.06
2023-04-22T06:01:17.482Z,27.06
2023-04-22T06:02:17.633Z,27.03
2023-04-22T06:03:17.662Z,27.05
2023-04-22T06:04:17.670Z,27.05
2023-04-22T06:05:17.686Z,27.06
2023-04-22T06:06:17.450Z,27.05
2023-04-22T06:07:17.431Z,27.08
2023-04-22T06:08:17.444Z,27.09
2023-04-22T06:09:17.471Z,27.09
2023-04-22T06:10:17.424Z,27.11
2023-04-22T06:11:17.425Z,27.12
2023-04-22T06:12:17.414Z,27.11
2023-04-22T06:13:17.391Z,27.09
2023-04-22T06:14:17.378Z,27.11
2023-04-22T06:15:17.406Z,27.12
2023-04-22T06:16:17.398Z,27.11
2023-04-22T06:17:17.506Z,27.13
2023-04-22T06:18:17.379Z,27.13
2023-04-22T06:19:17.401Z,27.13
2023-04-22T06:20:17.346Z,27.13
2023-04-22T06:21:17.362Z,27.15
2023-04-22T06:22:17.330Z,27.16
2023-04-22T06:23:17.348Z,27.16
2023-04-22T06:24:17.331Z,27.21
2023-04-22T06:25:17.304Z,27.21
2023-04-22T06:26:17.317Z,27.21
2023-04-22T06:27:17.300Z,27.22
2023-04-22T06:28:17.292Z,27.25
2023-04-22T06:29:17.334Z,27.24
2023-04-22T06:30:17.286Z,27.28
2023-04-22T06:31:18.822Z,27.29
2023-04-22T06:32:17.287Z,27.30
2023-04-22T06:33:17.317Z,27.30
2023-04-22T06:34:17.403Z,27.33
2023-04-22T06:35:17.405Z,27.36
2023-04-22T06:36:17.453Z,27.35
2023-04-22T06:37:17.514Z,27.38
2023-04-22T06:38:17.523Z,27.38
2023-04-22T06:39:17.570Z,27.39
2023-04-22T06:40:17.682Z,27.38
2023-04-22T06:41:17.648Z,27.39
2023-04-22T06:42:17.668Z,27.39
2023-04-22T06:43:17.708Z,27.40
2023-04-22T06:44:17.742Z,27.42
2023-04-22T06:45:17.774Z,27.43
2023-04-22T06:46:18.268Z,27.45
2023-04-22T06:47:17.866Z,27.43
2023-04-22T06:48:17.893Z,27.45
2023-04-22T06:49:17.925Z,27.48
2023-04-22T06:50:17.965Z,27.48
2023-04-22T06:51:17.981Z,27.50
2023-04-22T06:52:18.010Z,27.50
2023-04-22T06:53:18.037Z,27.50
2023-04-22T06:54:18.084Z,27.52
2023-04-22T06:55:18.116Z,27.52
2023-04-22T06:56:18.132Z,27.52
2023-04-22T06:57:18.168Z,27.56
2023-04-22T06:58:18.216Z,27.57
2023-04-22T06:59:18.218Z,27.59
2023-04-22T07:00:18.236Z,27.59
2023-04-22T07:01:18.287Z,27.60
2023-04-22T07:02:18.446Z,27.63
2023-04-22T07:03:18.411Z,27.66
2023-04-22T07:04:18.375Z,27.64
2023-04-22T07:05:18.327Z,27.66
2023-04-22T07:06:18.364Z,27.67
2023-04-22T07:07:18.384Z,27.69
2023-04-22T07:08:18.384Z,27.70
2023-04-22T07:09:18.421Z,27.71
2023-04-22T07:10:18.415Z,27.71
2023-04-22T07:11:18.418Z,27.71
2023-04-22T07:12:18.411Z,27.73
2023-04-22T07:13:18.432Z,27.74
2023-04-22T07:14:18.453Z,27.77
2023-04-22T07:15:18.484Z,27.77
2023-04-22T07:16:18.504Z,27.79
2023-04-22T07:17:18.515Z,27.76
2023-04-22T07:18:18.487Z,27.76
2023-04-22T07:19:18.488Z,27.79
2023-04-22T07:20:18.485Z,27.77
2023-04-22T07:21:18.500Z,27.80
2023-04-22T07:22:18.513Z,27.79
2023-04-22T07:23:18.530Z,27.81
2023-04-22T07:24:18.602Z,27.80
2023-04-22T07:25:18.531Z,27.80
2023-04-22T07:26:18.523Z,27.81
2023-04-22T07:27:18.557Z,27.83
2023-04-22T07:28:18.533Z,27.80
2023-04-22T07:29:18.526Z,27.83
2023-04-22T07:30:18.538Z,27.81
2023-04-22T07:31:18.572Z,27.81
2023-04-22T07:32:18.604Z,27.84
2023-04-22T07:33:18.566Z,27.81
2023-04-22T07:34:18.599Z,27.86
2023-04-22T07:35:18.561Z,27.83
2023-04-22T07:36:18.568Z,27.84
2023-04-22T07:37:18.596Z,27.84
2023-04-22T07:38:18.593Z,27.87
2023-04-22T07:39:18.575Z,27.86
2023-04-22T07:40:18.571Z,27.87
2023-04-22T07:41:18.568Z,27.86
2023-04-22T07:42:18.578Z,27.89
2023-04-22T07:43:18.578Z,27.90
2023-04-22T07:44:18.620Z,27.87
2023-04-22T07:45:18.569Z,27.89
2023-04-22T07:46:18.817Z,27.89
2023-04-22T07:47:18.598Z,27.89
2023-04-22T07:48:18.595Z,27.91
2023-04-22T07:49:18.578Z,27.91
2023-04-22T07:50:18.586Z,27.90
2023-04-22T07:51:18.588Z,27.91
2023-04-22T07:52:18.566Z,27.91
2023-04-22T07:53:18.559Z,27.93
2023-04-22T07:54:18.558Z,27.91
2023-04-22T07:55:18.563Z,27.93
2023-04-22T07:56:18.578Z,27.91
2023-04-22T07:57:18.562Z,27.91
2023-04-22T07:58:18.595Z,27.94
2023-04-22T07:59:18.580Z,27.93
2023-04-22T08:00:18.569Z,27.94
2023-04-22T08:01:20.060Z,27.96
2023-04-22T08:02:18.697Z,27.97
2023-04-22T08:03:18.736Z,27.94
2023-04-22T08:04:18.773Z,27.94
2023-04-22T08:05:18.674Z,27.96
2023-04-22T08:06:18.572Z,27.94
2023-04-22T08:07:32.515Z,27.96
2023-04-22T08:08:19.641Z,27.94
2023-04-22T08:09:18.544Z,27.94
2023-04-22T08:10:18.528Z,27.94
2023-04-22T08:11:18.558Z,27.94
2023-04-22T08:12:18.521Z,27.93
2023-04-22T08:13:18.616Z,27.93
2023-04-22T08:14:18.504Z,27.91
2023-04-22T08:15:18.529Z,27.91
2023-04-22T08:16:18.549Z,27.93
2023-04-22T08:17:18.498Z,27.91
2023-04-22T08:18:18.474Z,27.93
2023-04-22T08:19:18.502Z,27.94
2023-04-22T08:20:18.472Z,27.91
2023-04-22T08:21:18.489Z,27.91
2023-04-22T08:22:18.457Z,27.93
2023-04-22T08:23:18.467Z,27.90
2023-04-22T08:24:18.431Z,27.90
2023-04-22T08:25:18.424Z,27.90
2023-04-22T08:26:18.416Z,27.91
2023-04-22T08:27:18.406Z,27.91
2023-04-22T08:28:18.400Z,27.89
2023-04-22T08:29:18.415Z,27.90
2023-04-22T08:30:18.495Z,27.91
2023-04-22T08:31:18.441Z,27.90
2023-04-22T08:32:18.392Z,27.90
2023-04-22T08:33:18.378Z,27.89
2023-04-22T08:34:18.365Z,27.90
2023-04-22T08:35:18.371Z,27.90
2023-04-22T08:36:18.351Z,27.89
2023-04-22T08:37:18.347Z,27.89
2023-04-22T08:38:18.330Z,27.86
2023-04-22T08:39:18.346Z,27.89
2023-04-22T08:40:18.324Z,27.87
2023-04-22T08:41:18.316Z,27.84
2023-04-22T08:42:18.311Z,27.84
2023-04-22T08:43:18.300Z,27.83
2023-04-22T08:44:18.290Z,27.84
2023-04-22T08:45:18.285Z,27.84
2023-04-22T08:46:18.313Z,27.83
2023-04-22T08:47:18.282Z,27.86
2023-04-22T08:48:18.273Z,27.81
2023-04-22T08:49:18.265Z,27.81
2023-04-22T08:50:18.245Z,27.80
2023-04-22T08:51:18.258Z,27.81
2023-04-22T08:52:18.234Z,27.79
2023-04-22T08:53:18.337Z,27.80
2023-04-22T08:54:18.220Z,27.81
2023-04-22T08:55:18.224Z,27.80
2023-04-22T08:56:18.208Z,27.76
2023-04-22T08:57:18.195Z,27.77
2023-04-22T08:58:18.214Z,27.77
2023-04-22T08:59:18.180Z,27.76
2023-04-22T09:00:18.192Z,27.74
2023-04-22T09:01:18.211Z,27.76
2023-04-22T09:02:18.244Z,27.74
2023-04-22T09:03:18.228Z,27.74
2023-04-22T09:04:18.204Z,27.73
2023-04-22T09:05:18.144Z,27.73
2023-04-22T09:06:18.134Z,27.71
2023-04-22T09:07:18.114Z,27.70
2023-04-22T09:08:18.108Z,27.73
2023-04-22T09:09:18.115Z,27.70
2023-04-22T09:10:18.093Z,27.69
2023-04-22T09:11:18.101Z,27.67
2023-04-22T09:12:18.084Z,27.70
2023-04-22T09:13:18.081Z,27.69
2023-04-22T09:14:18.098Z,27.70
2023-04-22T09:15:18.203Z,27.67
2023-04-22T09:16:18.146Z,27.69
2023-04-22T09:17:18.126Z,27.67
2023-04-22T09:18:18.132Z,27.66
2023-04-22T09:19:18.158Z,27.67
2023-04-22T09:20:18.159Z,27.67
2023-04-22T09:21:18.174Z,27.63
2023-04-22T09:22:18.165Z,27.64
2023-04-22T09:23:18.177Z,27.66
2023-04-22T09:24:18.224Z,27.64
2023-04-22T09:25:18.196Z,27.64
2023-04-22T09:26:18.231Z,27.64
2023-04-22T09:27:18.218Z,27.63
2023-04-22T09:28:18.261Z,27.63
2023-04-22T09:29:18.257Z,27.64
2023-04-22T09:30:18.325Z,27.60
2023-04-22T09:31:18.344Z,27.63
2023-04-22T09:32:18.276Z,27.61
2023-04-22T09:33:18.284Z,27.61
2023-04-22T09:34:18.297Z,27.60
2023-04-22T09:35:18.321Z,27.59
2023-04-22T09:36:18.335Z,27.60
2023-04-22T09:37:18.438Z,27.59
2023-04-22T09:38:18.359Z,27.60
2023-04-22T09:39:18.383Z,27.60
2023-04-22T09:40:18.447Z,27.60
2023-04-22T09:41:18.401Z,27.59
2023-04-22T09:42:18.417Z,27.57
2023-04-22T09:43:18.445Z,27.56
2023-04-22T09:44:18.440Z,27.57
2023-04-22T09:45:18.478Z,27.56
2023-04-22T09:46:18.550Z,27.59
2023-04-22T09:47:18.520Z,27.57
2023-04-22T09:48:18.532Z,27.54
2023-04-22T09:49:18.556Z,27.56
2023-04-22T09:50:18.602Z,27.54
2023-04-22T09:51:18.601Z,27.56
2023-04-22T09:52:18.614Z,27.57
2023-04-22T09:53:18.639Z,27.54
2023-04-22T09:54:18.671Z,27.54
2023-04-22T09:55:18.700Z,27.56
2023-04-22T09:56:18.701Z,27.54
2023-04-22T09:57:18.718Z,27.52
2023-04-22T09:58:18.810Z,27.54
2023-04-22T09:59:18.776Z,27.54
2023-04-22T10:00:18.830Z,27.52
2023-04-22T10:01:18.827Z,27.53
2023-04-22T10:02:18.806Z,27.52
2023-04-22T10:03:18.929Z,27.50
2023-04-22T10:04:18.889Z,27.52
2023-04-22T10:05:18.856Z,27.52
2023-04-22T10:06:18.902Z,27.50
2023-04-22T10:07:18.907Z,27.50
2023-04-22T10:08:18.939Z,27.53
2023-04-22T10:09:18.946Z,27.50
2023-04-22T10:10:18.961Z,27.50
2023-04-22T10:11:18.996Z,27.52
2023-04-22T10:12:26.068Z,27.52
2023-04-22T10:13:19.994Z,27.49
2023-04-22T10:14:18.997Z,27.52
2023-04-22T10:15:18.960Z,27.50
2023-04-22T10:16:18.976Z,27.50
2023-04-22T10:17:18.960Z,27.50
2023-04-22T10:18:18.962Z,27.49
2023-04-22T10:19:18.960Z,27.50
2023-04-22T10:20:19.053Z,27.49
2023-04-22T10:21:18.963Z,27.50
2023-04-22T10:22:18.997Z,27.49
2023-04-22T10:23:18.933Z,27.49
2023-04-22T10:24:18.921Z,27.49
2023-04-22T10:25:18.895Z,27.48
2023-04-22T10:26:18.934Z,27.48
2023-04-22T10:27:18.899Z,27.50
2023-04-22T10:28:18.896Z,27.48
2023-04-22T10:29:18.885Z,27.45
2023-04-22T10:30:18.856Z,27.48
2023-04-22T10:31:18.908Z,27.50
2023-04-22T10:32:18.959Z,27.49
2023-04-22T10:33:18.841Z,27.50
2023-04-22T10:34:18.840Z,27.48
2023-04-22T10:35:19.042Z,27.49
2023-04-22T10:36:18.862Z,27.49
2023-04-22T10:37:18.881Z,27.46
2023-04-22T10:38:18.910Z,27.49
2023-04-22T10:39:18.943Z,27.48
2023-04-22T10:40:18.931Z,27.49
2023-04-22T10:41:18.986Z,27.48
2023-04-22T10:42:18.978Z,27.45
2023-04-22T10:43:19.087Z,27.49
2023-04-22T10:44:19.028Z,27.48
2023-04-22T10:45:19.033Z,27.48
2023-04-22T10:46:19.099Z,27.49
2023-04-22T10:47:19.049Z,27.49
2023-04-22T10:48:19.080Z,27.48
2023-04-22T10:49:19.098Z,27.46
2023-04-22T10:50:19.125Z,27.48
2023-04-22T10:51:19.151Z,27.48
2023-04-22T10:52:19.165Z,27.46
2023-04-22T10:53:19.178Z,27.48
2023-04-22T10:54:19.198Z,27.48
2023-04-22T10:55:19.204Z,27.46
2023-04-22T10:56:19.234Z,27.46
2023-04-22T10:57:19.273Z,27.48
2023-04-22T10:58:19.254Z,27.48
2023-04-22T10:59:19.269Z,27.45
2023-04-22T11:00:19.292Z,27.43
2023-04-22T11:01:19.357Z,27.46
2023-04-22T11:02:19.373Z,27.46
2023-04-22T11:03:19.574Z,27.45
2023-04-22T11:04:19.396Z,27.45
2023-04-22T11:05:19.478Z,27.48
2023-04-22T11:06:19.443Z,27.46
2023-04-22T11:07:19.442Z,27.45
2023-04-22T11:08:19.446Z,27.43
2023-04-22T11:09:19.484Z,27.46
2023-04-22T11:10:19.482Z,27.45
2023-04-22T11:11:19.528Z,27.43
2023-04-22T11:12:19.535Z,27.46
2023-04-22T11:13:19.544Z,27.45
2023-04-22T11:14:19.560Z,27.45
2023-04-22T11:15:19.598Z,27.45
2023-04-22T11:16:20.534Z,27.45
2023-04-22T11:17:19.619Z,27.45
2023-04-22T11:18:19.667Z,27.45
2023-04-22T11:19:19.667Z,27.45
2023-04-22T11:20:19.700Z,27.45
2023-04-22T11:21:19.727Z,27.45
2023-04-22T11:22:19.740Z,27.46
2023-04-22T11:23:19.751Z,27.42
2023-04-22T11:24:19.778Z,27.45
2023-04-22T11:25:19.799Z,27.45
2023-04-22T11:26:19.848Z,27.43
2023-04-22T11:27:19.944Z,27.45
2023-04-22T11:28:21.514Z,27.43
2023-04-22T11:29:19.904Z,27.45
2023-04-22T11:30:19.931Z,27.43
2023-04-22T11:31:20.006Z,27.42
2023-04-22T11:32:19.964Z,27.42
2023-04-22T11:33:19.979Z,27.43
2023-04-22T11:34:20.005Z,27.42
2023-04-22T11:35:20.022Z,27.43
2023-04-22T11:36:20.077Z,27.45
2023-04-22T11:37:20.063Z,27.42
2023-04-22T11:38:20.091Z,27.42
2023-04-22T11:39:20.118Z,27.40
2023-04-22T11:40:29.350Z,27.40
2023-04-22T11:41:21.133Z,27.42
2023-04-22T11:42:20.119Z,27.42
2023-04-22T11:43:20.120Z,27.42
2023-04-22T11:44:20.112Z,27.40
2023-04-22T11:45:20.090Z,27.40
2023-04-22T11:46:21.827Z,27.42
2023-04-22T11:47:20.088Z,27.42
2023-04-22T11:48:20.072Z,27.40
2023-04-22T11:49:20.164Z,27.42
2023-04-22T11:50:20.063Z,27.42
2023-04-22T11:51:20.072Z,27.39
2023-04-22T11:52:21.187Z,27.42
2023-04-22T11:53:20.117Z,27.43
2023-04-22T11:54:20.150Z,27.42
2023-04-22T11:55:20.191Z,27.40
2023-04-22T11:56:20.229Z,27.42
2023-04-22T11:57:20.213Z,27.40
2023-04-22T11:58:20.257Z,27.42
2023-04-22T11:59:20.289Z,27.42
2023-04-22T12:00:20.289Z,27.43
2023-04-22T12:01:20.340Z,27.42
2023-04-22T12:02:20.553Z,27.40
2023-04-22T12:03:20.527Z,27.43
2023-04-22T12:04:20.439Z,27.40
2023-04-22T12:05:20.440Z,27.40
2023-04-22T12:06:20.459Z,27.42
2023-04-22T12:07:20.469Z,27.42
2023-04-22T12:08:20.500Z,27.42
2023-04-22T12:09:20.526Z,27.40
2023-04-22T12:10:20.544Z,27.42
2023-04-22T12:11:20.606Z,27.40
2023-04-22T12:12:20.706Z,27.40
2023-04-22T12:13:20.613Z,27.42
2023-04-22T12:14:20.651Z,27.39
2023-04-22T12:15:20.683Z,27.42
2023-04-22T12:16:20.774Z,27.42
2023-04-22T12:17:20.733Z,27.40
2023-04-22T12:18:20.740Z,27.39
2023-04-22T12:19:20.744Z,27.42
2023-04-22T12:20:21.868Z,27.42
2023-04-22T12:21:21.026Z,27.42
2023-04-22T12:22:21.030Z,27.43
2023-04-22T12:23:21.042Z,27.40
2023-04-22T12:24:21.083Z,27.42
2023-04-22T12:25:21.086Z,27.42
2023-04-22T12:26:22.106Z,27.40
2023-04-22T12:27:21.378Z,27.42
2023-04-22T12:28:21.401Z,27.42
2023-04-22T12:29:21.409Z,27.42
2023-04-22T12:30:21.457Z,27.42
2023-04-22T12:31:21.552Z,27.40
2023-04-22T12:32:23.610Z,27.40
2023-04-22T12:33:21.500Z,27.42
2023-04-22T12:34:21.584Z,27.40
2023-04-22T12:35:21.479Z,27.42
2023-04-22T12:36:21.481Z,27.39
2023-04-22T12:37:21.463Z,27.40
2023-04-22T12:38:21.450Z,27.39
2023-04-22T12:39:21.437Z,27.42
2023-04-22T12:40:21.435Z,27.40
2023-04-22T12:41:21.454Z,27.40
2023-04-22T12:42:21.426Z,27.40
2023-04-22T12:43:21.416Z,27.43
2023-04-22T12:44:22.560Z,27.40
2023-04-22T12:45:21.387Z,27.40
2023-04-22T12:46:21.538Z,27.39
2023-04-22T12:47:21.441Z,27.40
2023-04-22T12:48:21.383Z,27.42
2023-04-22T12:49:21.373Z,27.40
2023-04-22T12:50:21.363Z,27.40
2023-04-22T12:51:21.384Z,27.40
2023-04-22T12:52:21.332Z,27.39
2023-04-22T12:53:21.348Z,27.39